Time;durP1;ratioP1;P1;durP2;ratioP2;P2;SDS_P1;SDS_P2;PMS_P1;PMS_P2;Temp;Humidity;BMP_temperature;BMP_pressure;BME280_temperature;BME280_humidity;BME280_pressure;Samples;Min_cycle;Max_cycle;Signal;HPM_P1;HPM_P2
2023/04/26 00:00:44;;;;;;;3.13;0.85;;;6.60;94.10;;;;;;4988886;28;20025;-66
2023/04/26 00:03:12;;;;;;;6.07;1.20;;;6.60;94.20;;;;;;4987451;28;20392;-66
2023/04/26 00:05:38;;;;;;;3.15;1.10;;;6.60;94.30;;;;;;4990529;28;20112;-66
2023/04/26 00:08:04;;;;;;;2.15;0.98;;;6.50;94.40;;;;;;4986042;28;20054;-66
2023/04/26 00:10:30;;;;;;;5.63;1.02;;;6.50;94.60;;;;;;4987046;28;20031;-66
2023/04/26 00:12:56;;;;;;;4.75;1.10;;;6.50;94.50;;;;;;4986368;28;20034;-66
2023/04/26 00:15:22;;;;;;;3.40;1.10;;;6.50;94.70;;;;;;4987160;28;20061;-66
2023/04/26 00:17:49;;;;;;;4.13;1.08;;;6.60;94.70;;;;;;4980750;28;20033;-66
2023/04/26 00:20:15;;;;;;;9.70;1.27;;;6.50;94.70;;;;;;4990421;28;20809;-66
2023/04/26 00:22:41;;;;;;;6.28;1.23;;;6.50;94.80;;;;;;4987597;28;20042;-66
2023/04/26 00:25:07;;;;;;;5.07;1.33;;;6.50;94.90;;;;;;4984017;28;20093;-66
2023/04/26 00:27:33;;;;;;;4.18;1.77;;;6.40;94.90;;;;;;4970159;28;20029;-66
2023/04/26 00:29:59;;;;;;;4.25;1.42;;;6.40;95.10;;;;;;4986500;28;20045;-66
2023/04/26 00:32:25;;;;;;;2.78;0.90;;;6.40;95.30;;;;;;4981820;28;20034;-66
2023/04/26 00:34:51;;;;;;;6.85;2.38;;;6.40;95.40;;;;;;4985661;28;20026;-66
2023/04/26 00:37:16;;;;;;;4.78;1.05;;;6.30;95.50;;;;;;4982150;28;20057;-66
2023/04/26 00:39:42;;;;;;;8.20;1.33;;;6.30;95.60;;;;;;4968151;28;20044;-66
2023/04/26 00:42:08;;;;;;;5.50;0.90;;;6.30;95.70;;;;;;4981993;28;20476;-66
2023/04/26 00:44:35;;;;;;;7.38;1.00;;;6.30;95.90;;;;;;4982820;28;20084;-67
2023/04/26 00:47:01;;;;;;;2.95;1.02;;;6.30;96.00;;;;;;4984765;28;20023;-66
2023/04/26 00:49:27;;;;;;;6.88;1.20;;;6.20;96.00;;;;;;4967213;28;20033;-66
2023/04/26 00:51:53;;;;;;;4.50;1.20;;;6.20;96.00;;;;;;4968369;28;20148;-66
2023/04/26 00:54:20;;;;;;;4.53;0.75;;;6.20;96.10;;;;;;4965342;28;20069;-66
2023/04/26 00:56:47;;;;;;;3.65;1.20;;;6.20;96.00;;;;;;4963994;28;20026;-66
2023/04/26 00:59:13;;;;;;;1.83;0.80;;;6.20;96.30;;;;;;4968944;28;20066;-67
2023/04/26 01:01:41;;;;;;;4.93;1.30;;;6.10;96.40;;;;;;4967404;28;20146;-66
2023/04/26 01:04:07;;;;;;;6.82;1.10;;;6.10;96.40;;;;;;4965926;28;20073;-66
2023/04/26 01:06:37;;;;;;;4.25;0.80;;;6.10;96.40;;;;;;4990021;28;20033;-66
2023/04/26 01:09:10;;;;;;;5.20;1.17;;;6.10;96.50;;;;;;4952612;28;20039;-66
2023/04/26 01:11:36;;;;;;;3.78;1.00;;;6.10;96.60;;;;;;4989511;28;20840;-66
2023/04/26 01:14:07;;;;;;;2.38;0.90;;;6.00;96.60;;;;;;4976576;28;20140;-67
2023/04/26 01:16:34;;;;;;;4.60;0.90;;;6.00;96.80;;;;;;4968033;28;20031;-66
2023/04/26 01:19:11;;;;;;;1.92;0.70;;;6.00;96.80;;;;;;4971947;28;20792;-66
2023/04/26 01:21:39;;;;;;;4.50;1.20;;;6.00;96.80;;;;;;4988271;28;20035;-66
2023/04/26 01:24:05;;;;;;;3.30;0.88;;;5.90;97.10;;;;;;4987957;28;20037;-66
2023/04/26 01:26:31;;;;;;;4.07;1.08;;;5.90;96.90;;;;;;4967923;28;20034;-66
2023/04/26 01:28:57;;;;;;;5.40;0.82;;;5.90;96.90;;;;;;4970427;28;20030;-66
2023/04/26 01:31:23;;;;;;;5.00;0.85;;;5.90;96.90;;;;;;4991835;28;20137;-66
2023/04/26 01:33:50;;;;;;;4.03;1.00;;;5.90;97.10;;;;;;4992610;28;20026;-66
2023/04/26 01:36:18;;;;;;;6.57;1.40;;;5.80;97.10;;;;;;4990426;28;20058;-66
2023/04/26 01:38:44;;;;;;;7.88;1.20;;;5.80;97.20;;;;;;4974604;28;20125;-66
2023/04/26 01:41:10;;;;;;;3.50;1.00;;;5.80;97.20;;;;;;4971847;28;20040;-66
2023/04/26 01:43:35;;;;;;;2.47;0.70;;;5.80;97.30;;;;;;4993450;28;20026;-66
2023/04/26 01:46:01;;;;;;;8.10;1.10;;;5.80;97.30;;;;;;4971402;28;20558;-66
2023/04/26 01:48:30;;;;;;;5.72;0.80;;;5.70;97.40;;;;;;4992045;28;20384;-66
2023/04/26 01:50:56;;;;;;;7.38;1.10;;;5.70;97.50;;;;;;4989274;28;20030;-66
2023/04/26 01:53:21;;;;;;;3.55;1.25;;;5.60;97.80;;;;;;4958342;28;20041;-66
2023/04/26 01:55:47;;;;;;;5.55;1.60;;;5.60;97.60;;;;;;4995074;28;20536;-66
2023/04/26 01:58:13;;;;;;;6.82;1.25;;;5.60;97.60;;;;;;4977343;28;20805;-67
2023/04/26 02:00:39;;;;;;;8.13;1.40;;;5.50;97.70;;;;;;4973151;28;20037;-66
2023/04/26 02:03:04;;;;;;;4.57;1.02;;;5.50;97.90;;;;;;4991851;28;20034;-66
2023/04/26 02:05:30;;;;;;;6.55;1.08;;;5.50;98.10;;;;;;4968198;28;20035;-66
2023/04/26 02:07:56;;;;;;;5.03;1.13;;;5.40;98.20;;;;;;4974775;28;20076;-66
2023/04/26 02:10:22;;;;;;;1.08;0.80;;;5.40;98.30;;;;;;4986153;28;20037;-65
2023/04/26 02:12:47;;;;;;;5.63;1.13;;;5.40;98.40;;;;;;4971342;28;20079;-66
2023/04/26 02:15:14;;;;;;;6.28;1.58;;;5.40;98.60;;;;;;4958738;28;20092;-66
2023/04/26 02:17:39;;;;;;;2.80;1.02;;;5.40;98.80;;;;;;4966543;28;20040;-67
2023/04/26 02:20:09;;;;;;;5.88;1.40;;;5.30;98.80;;;;;;4985814;28;20034;-66
2023/04/26 02:22:35;;;;;;;3.80;1.13;;;5.30;99.00;;;;;;4990413;28;20054;-66
2023/04/26 02:25:01;;;;;;;5.88;0.90;;;5.30;98.90;;;;;;4980952;28;20053;-66
2023/04/26 02:27:26;;;;;;;1.98;0.90;;;5.20;99.00;;;;;;4989313;28;20121;-66
2023/04/26 02:29:53;;;;;;;4.57;0.93;;;5.30;98.90;;;;;;4969461;28;20497;-66
2023/04/26 02:32:19;;;;;;;8.63;1.35;;;5.30;99.00;;;;;;4990031;28;20030;-66
2023/04/26 02:34:45;;;;;;;3.75;1.00;;;5.20;99.10;;;;;;4969752;28;20062;-66
2023/04/26 02:37:11;;;;;;;4.90;1.27;;;5.20;99.10;;;;;;4972195;28;20030;-66
2023/04/26 02:39:37;;;;;;;7.30;1.10;;;5.20;99.30;;;;;;4990757;28;20030;-66
2023/04/26 02:42:07;;;;;;;5.78;1.10;;;5.20;99.40;;;;;;4972929;28;20034;-66
2023/04/26 02:44:33;;;;;;;2.78;0.95;;;5.20;99.60;;;;;;4972594;28;20033;-66
2023/04/26 02:46:58;;;;;;;7.93;1.58;;;5.10;99.60;;;;;;4969142;28;20038;-66
2023/04/26 02:49:24;;;;;;;7.05;0.93;;;5.20;99.70;;;;;;4968970;28;20034;-66
2023/04/26 02:51:50;;;;;;;4.97;1.10;;;5.10;99.90;;;;;;4970066;28;20036;-66
2023/04/26 02:54:16;;;;;;;3.08;1.10;;;5.20;99.90;;;;;;4977058;28;20034;-66
2023/04/26 02:56:42;;;;;;;3.97;1.30;;;5.20;99.90;;;;;;4974513;28;20033;-66
2023/04/26 02:59:08;;;;;;;2.72;0.85;;;5.20;99.90;;;;;;4969864;28;20033;-66
2023/04/26 03:01:34;;;;;;;4.55;1.35;;;5.20;99.90;;;;;;4966382;28;20122;-66
2023/04/26 03:04:00;;;;;;;6.20;1.30;;;5.10;99.90;;;;;;4968528;28;20038;-66
2023/04/26 03:06:27;;;;;;;8.88;1.23;;;5.10;99.90;;;;;;4973151;28;21018;-66
2023/04/26 03:08:53;;;;;;;5.30;1.30;;;5.20;99.90;;;;;;4968769;28;20042;-66
2023/04/26 03:11:19;;;;;;;3.53;1.30;;;5.10;99.90;;;;;;4987567;28;20556;-66
2023/04/26 03:13:44;;;;;;;8.70;0.90;;;5.10;99.90;;;;;;4970078;28;20708;-66
2023/04/26 03:16:10;;;;;;;4.55;1.20;;;5.20;99.90;;;;;;4971005;28;20058;-66
2023/04/26 03:18:37;;;;;;;5.63;1.30;;;5.10;99.90;;;;;;4993788;28;20057;-66
2023/04/26 03:21:04;;;;;;;11.90;1.55;;;5.10;99.90;;;;;;4968238;28;20030;-66
2023/04/26 03:23:30;;;;;;;4.75;1.27;;;5.10;99.90;;;;;;4988392;28;20072;-67
2023/04/26 03:25:55;;;;;;;7.70;1.20;;;5.10;99.90;;;;;;4988898;28;20035;-66
2023/04/26 03:28:21;;;;;;;6.75;1.67;;;5.10;99.90;;;;;;4968825;28;20040;-66
2023/04/26 03:30:48;;;;;;;9.40;1.42;;;5.10;99.90;;;;;;4968218;28;20085;-66
2023/04/26 03:33:15;;;;;;;7.60;1.40;;;5.10;99.90;;;;;;4982606;28;20034;-66
2023/04/26 03:35:42;;;;;;;10.23;2.25;;;5.10;99.90;;;;;;4967351;28;20041;-66
2023/04/26 03:38:08;;;;;;;3.35;1.13;;;5.10;99.90;;;;;;4963451;28;20033;-66
2023/04/26 03:40:34;;;;;;;5.95;1.70;;;5.10;99.90;;;;;;4969992;28;20038;-66
2023/04/26 03:43:00;;;;;;;4.53;1.25;;;5.10;99.90;;;;;;4964799;28;20040;-66
2023/04/26 03:45:26;;;;;;;5.82;1.55;;;5.10;99.90;;;;;;4967186;28;20038;-66
2023/04/26 03:47:52;;;;;;;5.25;1.45;;;5.00;99.90;;;;;;4965334;28;20091;-66
2023/04/26 03:50:18;;;;;;;3.78;1.15;;;5.00;99.90;;;;;;4966938;28;20132;-66
2023/04/26 03:52:45;;;;;;;4.78;1.15;;;5.00;99.90;;;;;;4970290;28;20037;-66
2023/04/26 03:55:11;;;;;;;5.38;1.83;;;5.00;99.90;;;;;;4969090;28;20045;-66
2023/04/26 03:57:38;;;;;;;5.60;1.13;;;5.00;99.90;;;;;;4964358;28;20752;-66
2023/04/26 04:00:12;;;;;;;4.85;1.60;;;5.00;99.90;;;;;;4970646;28;20036;-66
2023/04/26 04:02:41;;;;;;;3.30;1.05;;;5.00;99.90;;;;;;4983313;28;20030;-66
2023/04/26 04:05:08;;;;;;;6.10;1.50;;;5.00;99.90;;;;;;4969596;28;20489;-66
2023/04/26 04:07:36;;;;;;;4.57;1.52;;;5.10;99.90;;;;;;4991376;28;20029;-66
2023/04/26 04:10:01;;;;;;;8.02;1.25;;;5.10;99.90;;;;;;4969202;28;20600;-66
2023/04/26 04:12:27;;;;;;;5.10;1.30;;;5.10;99.90;;;;;;4971821;28;20032;-66
2023/04/26 04:14:53;;;;;;;4.88;1.17;;;5.10;99.90;;;;;;4951437;28;20034;-66
2023/04/26 04:17:19;;;;;;;2.85;1.55;;;5.10;99.90;;;;;;4965955;28;20034;-66
2023/04/26 04:19:45;;;;;;;3.67;1.33;;;5.10;99.90;;;;;;4966906;28;20034;-66
2023/04/26 04:22:11;;;;;;;5.22;1.70;;;5.10;99.90;;;;;;4985095;28;20153;-66
2023/04/26 04:24:37;;;;;;;3.85;1.08;;;5.10;99.90;;;;;;4965786;28;20033;-66
2023/04/26 04:27:03;;;;;;;5.97;1.50;;;5.10;99.90;;;;;;4982376;28;20038;-66
2023/04/26 04:29:31;;;;;;;5.70;1.70;;;5.10;99.90;;;;;;4964923;28;20758;-66
2023/04/26 04:31:57;;;;;;;4.60;1.50;;;5.10;99.90;;;;;;4970987;28;20452;-66
2023/04/26 04:34:23;;;;;;;9.07;1.60;;;5.20;99.90;;;;;;4969340;28;20031;-66
2023/04/26 04:36:49;;;;;;;6.68;1.85;;;5.10;99.90;;;;;;4969403;28;20028;-65
2023/04/26 04:39:16;;;;;;;6.38;1.40;;;5.10;99.90;;;;;;4967033;28;20038;-65
2023/04/26 04:41:47;;;;;;;4.35;1.33;;;5.20;99.90;;;;;;4968939;28;20076;-66
2023/04/26 04:44:15;;;;;;;7.50;1.35;;;5.20;99.90;;;;;;4968268;28;20064;-66
2023/04/26 04:46:42;;;;;;;6.88;1.80;;;5.30;99.90;;;;;;4969668;28;20030;-67
2023/04/26 04:49:11;;;;;;;6.25;1.55;;;5.30;99.90;;;;;;4965972;28;20033;-66
2023/04/26 04:51:37;;;;;;;6.97;1.55;;;5.40;99.90;;;;;;4968632;28;20030;-66
2023/04/26 04:54:21;;;;;;;6.97;1.88;;;5.40;99.90;;;;;;4970814;28;20417;-66
2023/04/26 04:56:47;;;;;;;3.55;1.50;;;5.50;99.90;;;;;;4971586;28;20045;-66
2023/04/26 04:59:15;;;;;;;5.63;1.73;;;5.50;99.90;;;;;;4964374;28;20947;-66
2023/04/26 05:01:40;;;;;;;10.35;1.58;;;5.60;99.90;;;;;;4971465;28;20140;-66
2023/04/26 05:04:12;;;;;;;8.20;2.28;;;5.70;99.90;;;;;;4965249;28;20136;-66
2023/04/26 05:06:38;;;;;;;5.97;1.60;;;5.70;99.90;;;;;;4962271;28;20154;-66
2023/04/26 05:09:04;;;;;;;5.50;1.40;;;5.80;99.90;;;;;;4966813;28;20085;-66
2023/04/26 05:11:31;;;;;;;7.50;1.60;;;5.80;99.90;;;;;;4970726;28;20023;-66
2023/04/26 05:13:58;;;;;;;5.20;1.60;;;5.90;99.90;;;;;;4966639;28;20035;-66
2023/04/26 05:16:24;;;;;;;8.85;1.83;;;6.00;99.90;;;;;;4970848;28;20735;-66
2023/04/26 05:18:51;;;;;;;4.30;1.83;;;6.10;99.90;;;;;;4956890;28;20022;-66
2023/04/26 05:21:17;;;;;;;13.52;2.03;;;6.20;99.70;;;;;;4974003;28;20026;-66
2023/04/26 05:23:43;;;;;;;6.85;1.40;;;6.40;99.60;;;;;;4970227;28;20128;-66
2023/04/26 05:26:16;;;;;;;7.78;1.70;;;6.50;98.30;;;;;;4969908;28;20030;-66
2023/04/26 05:29:12;;;;;;;9.02;1.65;;;6.50;98.30;;;;;;4969297;28;20062;-66
2023/04/26 05:31:57;;;;;;;3.35;1.60;;;6.70;98.20;;;;;;4993614;28;20088;-66
2023/04/26 05:34:38;;;;;;;8.88;1.75;;;6.80;97.60;;;;;;4992136;28;20609;-66
2023/04/26 05:37:04;;;;;;;5.68;1.50;;;6.90;97.60;;;;;;4976558;28;20140;-66
2023/04/26 05:39:30;;;;;;;10.65;1.80;;;7.20;97.30;;;;;;4974673;28;20426;-66
2023/04/26 05:41:56;;;;;;;6.78;1.88;;;7.30;96.90;;;;;;4987676;28;20026;-66
2023/04/26 05:44:22;;;;;;;8.40;2.00;;;7.60;96.30;;;;;;4972744;28;20037;-66
2023/04/26 05:46:48;;;;;;;8.43;1.85;;;8.10;95.80;;;;;;4986324;28;20033;-66
2023/04/26 05:49:14;;;;;;;5.45;2.10;;;8.60;94.40;;;;;;4964583;28;20037;-67
2023/04/26 05:51:40;;;;;;;8.25;1.83;;;9.20;93.00;;;;;;4967949;28;20123;-66
2023/04/26 05:54:06;;;;;;;7.25;1.50;;;9.80;91.90;;;;;;4985442;28;20030;-66
2023/04/26 05:56:32;;;;;;;11.95;2.20;;;10.30;90.70;;;;;;4971605;28;20026;-66
2023/04/26 05:58:58;;;;;;;4.25;1.73;;;10.80;88.20;;;;;;4970249;28;20030;-67
2023/04/26 06:01:24;;;;;;;3.70;1.80;;;11.40;85.00;;;;;;4969667;28;20028;-66
2023/04/26 06:03:50;;;;;;;5.95;2.08;;;11.90;81.80;;;;;;4972802;28;20025;-67
2023/04/26 06:06:19;;;;;;;7.18;1.48;;;12.10;81.00;;;;;;4964262;28;20096;-66
2023/04/26 06:08:45;;;;;;;8.80;2.00;;;12.30;80.00;;;;;;4975264;28;20472;-66
2023/04/26 06:11:11;;;;;;;9.38;1.80;;;12.70;79.10;;;;;;4970761;28;20043;-67
2023/04/26 06:13:37;;;;;;;6.88;1.67;;;13.00;77.00;;;;;;4972964;28;20425;-67
2023/04/26 06:16:03;;;;;;;12.35;2.30;;;13.30;73.00;;;;;;4971994;28;20034;-66
2023/04/26 06:18:28;;;;;;;11.23;2.10;;;13.60;71.90;;;;;;4974783;28;20033;-66
2023/04/26 06:20:54;;;;;;;6.72;1.30;;;14.10;69.50;;;;;;4971473;28;20720;-67
2023/04/26 06:23:20;;;;;;;5.90;1.80;;;14.30;67.60;;;;;;4987100;28;20041;-66
2023/04/26 06:25:46;;;;;;;9.75;2.08;;;14.40;66.10;;;;;;4970908;28;20026;-66
2023/04/26 06:28:12;;;;;;;8.68;1.88;;;14.50;64.40;;;;;;4977711;28;20037;-67
2023/04/26 06:30:38;;;;;;;7.68;1.33;;;14.60;65.00;;;;;;4984147;28;20038;-67
2023/04/26 06:33:05;;;;;;;7.55;2.05;;;14.60;64.60;;;;;;4965431;28;20786;-66
2023/04/26 06:35:32;;;;;;;6.45;1.70;;;14.50;63.50;;;;;;4968901;28;20080;-67
2023/04/26 06:37:58;;;;;;;9.38;2.00;;;14.40;64.30;;;;;;4967273;28;20064;-67
2023/04/26 06:40:25;;;;;;;5.25;1.65;;;14.30;63.80;;;;;;4972610;28;20836;-66
2023/04/26 06:42:53;;;;;;;5.22;1.75;;;14.10;64.50;;;;;;4968650;28;20044;-67
2023/04/26 06:45:37;;;;;;;7.90;1.33;;;14.10;64.30;;;;;;4973163;28;20058;-64
2023/04/26 06:48:04;;;;;;;6.60;2.00;;;14.30;64.50;;;;;;4965459;28;20927;-66
2023/04/26 06:50:31;;;;;;;8.25;1.70;;;14.50;64.10;;;;;;4972768;28;20145;-68
2023/04/26 06:52:57;;;;;;;8.77;1.30;;;14.60;64.10;;;;;;4984310;28;20038;-69
2023/04/26 06:55:23;;;;;;;11.15;1.70;;;14.50;62.60;;;;;;4984877;28;20034;-67
2023/04/26 06:57:49;;;;;;;5.30;1.73;;;14.60;63.70;;;;;;4991378;28;20077;-66
2023/04/26 07:00:16;;;;;;;7.78;1.60;;;15.00;63.20;;;;;;4988341;28;20036;-67
2023/04/26 07:02:42;;;;;;;7.68;1.52;;;15.30;62.00;;;;;;4993120;28;20432;-68
2023/04/26 07:05:08;;;;;;;6.88;1.65;;;15.30;61.20;;;;;;4989068;28;20042;-67
2023/04/26 07:07:34;;;;;;;6.25;1.30;;;15.10;61.30;;;;;;4992157;28;20136;-69
2023/04/26 07:10:00;;;;;;;6.63;1.42;;;15.20;61.70;;;;;;4989278;28;20085;-67
2023/04/26 07:12:26;;;;;;;6.25;1.50;;;15.30;61.10;;;;;;4984735;28;20520;-66
2023/04/26 07:14:51;;;;;;;6.85;1.30;;;15.30;60.30;;;;;;4989738;28;20713;-70
2023/04/26 07:17:17;;;;;;;3.92;1.25;;;15.30;59.30;;;;;;4984569;28;20068;-67
2023/04/26 07:19:43;;;;;;;7.72;1.73;;;15.30;60.60;;;;;;4961439;28;20137;-67
2023/04/26 07:22:09;;;;;;;5.85;1.30;;;15.20;60.40;;;;;;4989190;28;20038;-67
2023/04/26 07:24:35;;;;;;;6.20;1.60;;;15.20;61.50;;;;;;4987110;28;20979;-66
2023/04/26 07:27:01;;;;;;;8.88;1.63;;;15.20;59.90;;;;;;4987628;28;20220;-67
2023/04/26 07:29:26;;;;;;;7.95;1.08;;;15.20;60.10;;;;;;4988614;28;20168;-67
2023/04/26 07:31:52;;;;;;;4.78;1.42;;;15.10;60.60;;;;;;4987076;28;20072;-67
2023/04/26 07:34:18;;;;;;;3.72;1.20;;;15.00;60.60;;;;;;4985062;28;20118;-68
2023/04/26 07:36:44;;;;;;;6.28;1.40;;;14.90;61.70;;;;;;4976493;28;20054;-68
2023/04/26 07:39:10;;;;;;;8.70;1.35;;;14.90;62.70;;;;;;4981236;28;20129;-67
2023/04/26 07:41:36;;;;;;;7.65;1.60;;;14.90;61.90;;;;;;4986853;28;20045;-67
2023/04/26 07:44:03;;;;;;;6.88;1.90;;;14.70;60.90;;;;;;4977630;28;20038;-65
2023/04/26 07:46:28;;;;;;;5.30;1.40;;;14.60;62.60;;;;;;4986248;28;20034;-67
2023/04/26 07:48:54;;;;;;;5.03;1.42;;;14.60;62.60;;;;;;4976646;28;20852;-66
2023/04/26 07:51:20;;;;;;;4.10;1.40;;;14.30;61.60;;;;;;4990333;28;20034;-67
2023/04/26 07:53:46;;;;;;;6.07;1.88;;;14.10;63.40;;;;;;4984388;28;20110;-67
2023/04/26 07:56:11;;;;;;;5.47;1.80;;;13.90;63.80;;;;;;4982061;28;20038;-68
2023/04/26 07:58:38;;;;;;;8.00;1.83;;;14.00;63.80;;;;;;4988833;28;20557;-67
2023/04/26 08:01:04;;;;;;;4.97;1.10;;;13.90;62.80;;;;;;4985087;28;20038;-67
2023/04/26 08:03:31;;;;;;;9.35;1.30;;;13.80;64.30;;;;;;4987745;28;20454;-67
2023/04/26 08:05:57;;;;;;;4.63;1.40;;;13.70;62.80;;;;;;4982075;28;20118;-67
2023/04/26 08:08:25;;;;;;;5.45;1.40;;;13.40;63.50;;;;;;4988975;28;20129;-68
2023/04/26 08:10:53;;;;;;;7.63;1.70;;;13.40;64.80;;;;;;4985537;28;20045;-68
2023/04/26 08:13:18;;;;;;;6.95;2.08;;;13.40;64.00;;;;;;4987491;28;20042;-67
2023/04/26 08:15:44;;;;;;;7.70;1.33;;;13.30;64.50;;;;;;4985065;28;20074;-67
2023/04/26 08:18:10;;;;;;;4.57;1.42;;;13.10;65.90;;;;;;4982717;28;20056;-67
2023/04/26 08:20:36;;;;;;;5.30;1.40;;;13.10;66.50;;;;;;4987567;28;20108;-67
2023/04/26 08:23:02;;;;;;;11.43;1.00;;;13.10;66.10;;;;;;4953611;28;20066;-68
2023/04/26 08:25:27;;;;;;;7.53;1.55;;;13.00;63.90;;;;;;4987957;28;20104;-68
2023/04/26 08:27:54;;;;;;;7.75;1.67;;;12.90;65.10;;;;;;4987232;28;20140;-66
2023/04/26 08:30:20;;;;;;;3.75;0.80;;;13.00;66.90;;;;;;4984567;28;20050;-68
2023/04/26 08:32:46;;;;;;;5.75;1.33;;;13.30;65.20;;;;;;4986376;28;20026;-68
2023/04/26 08:35:12;;;;;;;10.48;1.60;;;13.60;63.30;;;;;;4987639;28;20042;-68
2023/04/26 08:37:37;;;;;;;7.35;1.90;;;13.90;63.90;;;;;;4987166;28;20030;-68
2023/04/26 08:40:09;;;;;;;4.28;0.93;;;14.20;64.60;;;;;;4985426;28;20049;-68
2023/04/26 08:42:42;;;;;;;7.85;2.42;;;14.60;63.50;;;;;;4984086;28;20081;-68
2023/04/26 08:45:12;;;;;;;5.15;1.60;;;14.60;59.80;;;;;;4984905;28;20042;-68
2023/04/26 08:47:46;;;;;;;7.18;1.13;;;14.50;58.80;;;;;;4969729;28;20034;-69
2023/04/26 08:50:14;;;;;;;10.00;1.45;;;14.10;59.30;;;;;;4977960;28;20567;-68
2023/04/26 08:52:41;;;;;;;5.60;1.20;;;13.80;60.20;;;;;;4971525;28;20034;-67
2023/04/26 08:55:09;;;;;;;5.95;1.10;;;13.60;61.20;;;;;;4966483;28;20061;-66
2023/04/26 08:57:35;;;;;;;6.85;1.30;;;13.60;61.60;;;;;;4984503;28;20543;-67
2023/04/26 09:00:08;;;;;;;10.75;1.35;;;13.80;62.20;;;;;;4983480;28;20034;-67
2023/04/26 09:02:35;;;;;;;6.05;1.63;;;13.80;61.80;;;;;;4988051;28;20784;-66
2023/04/26 09:05:01;;;;;;;4.25;1.17;;;13.80;62.10;;;;;;4984486;28;20242;-69
2023/04/26 09:07:32;;;;;;;5.13;1.25;;;13.70;62.90;;;;;;4969348;28;20033;-67
2023/04/26 09:09:59;;;;;;;8.50;1.70;;;14.20;63.10;;;;;;4983326;28;20591;-68
2023/04/26 09:12:26;;;;;;;2.65;0.95;;;14.90;62.00;;;;;;4987775;28;20030;-68
2023/04/26 09:14:52;;;;;;;3.35;1.30;;;15.70;59.50;;;;;;4990140;28;20027;-68
2023/04/26 09:17:33;;;;;;;5.95;1.23;;;16.40;56.90;;;;;;4988654;28;20026;-68
2023/04/26 09:20:00;;;;;;;7.00;1.20;;;16.50;54.10;;;;;;4986696;28;20046;-68
2023/04/26 09:22:36;;;;;;;4.72;1.15;;;16.40;55.70;;;;;;4987182;28;20048;-68
2023/04/26 09:25:03;;;;;;;;;;;16.40;53.20;;;;;;4984975;28;20044;-68
2023/04/26 09:27:39;;;;;;;4.95;1.25;;;16.80;54.20;;;;;;4976654;28;20368;-68
2023/04/26 09:30:19;;;;;;;3.30;0.95;;;17.10;53.20;;;;;;4979136;28;20034;-68
2023/04/26 09:33:08;;;;;;;3.03;0.95;;;17.30;51.70;;;;;;4986513;28;20537;-68
2023/04/26 09:35:41;;;;;;;2.28;1.02;;;17.20;52.20;;;;;;4985344;28;20860;-68
2023/04/26 09:38:16;;;;;;;3.97;1.08;;;17.80;53.00;;;;;;4983110;28;20117;-68
2023/04/26 09:40:47;;;;;;;5.18;1.10;;;18.10;48.60;;;;;;4983023;28;20038;-68
2023/04/26 09:43:15;;;;;;;4.20;1.42;;;18.50;48.60;;;;;;4982250;28;20041;-67
2023/04/26 09:45:51;;;;;;;5.65;1.15;;;18.50;47.40;;;;;;4989843;28;20046;-68
2023/04/26 09:48:20;;;;;;;4.07;1.38;;;18.10;46.90;;;;;;4988902;28;20725;-68
2023/04/26 09:50:45;;;;;;;8.18;1.30;;;18.00;47.30;;;;;;4988879;28;20576;-68
2023/04/26 09:53:32;;;;;;;4.10;2.08;;;17.90;48.60;;;;;;4989692;28;20125;-67
2023/04/26 09:56:09;;;;;;;4.70;1.52;;;18.10;49.80;;;;;;4989496;28;20148;-68
2023/04/26 09:58:56;;;;;;;4.78;1.58;;;18.30;49.40;;;;;;4993023;28;20041;-66
2023/04/26 10:01:23;;;;;;;5.05;1.35;;;18.40;46.70;;;;;;4992026;28;20037;-68
2023/04/26 10:03:50;;;;;;;3.97;1.17;;;18.30;45.40;;;;;;4989925;28;20030;-67
2023/04/26 10:06:16;;;;;;;2.95;1.27;;;18.10;45.40;;;;;;4986337;28;20136;-67
2023/04/26 10:08:43;;;;;;;2.80;1.50;;;17.70;47.60;;;;;;4987971;28;20512;-67
2023/04/26 10:11:10;;;;;;;6.75;2.42;;;17.40;47.60;;;;;;4985905;28;20042;-67
2023/04/26 10:13:36;;;;;;;8.25;1.92;;;17.20;48.10;;;;;;4989188;28;20352;-67
2023/04/26 10:16:03;;;;;;;6.18;1.52;;;17.10;49.50;;;;;;4988901;28;20038;-67
2023/04/26 10:18:32;;;;;;;4.30;1.33;;;17.30;48.30;;;;;;4986165;28;20022;-68
2023/04/26 10:21:29;;;;;;;4.30;1.15;;;17.80;47.70;;;;;;4989435;28;20029;-68
2023/04/26 10:23:55;;;;;;;7.03;1.17;;;18.40;46.70;;;;;;4982387;28;20045;-68
2023/04/26 10:26:47;;;;;;;6.32;1.85;;;18.30;44.40;;;;;;4984745;28;20062;-68
2023/04/26 10:29:13;;;;;;;3.40;1.30;;;18.00;44.80;;;;;;4986716;28;20061;-68
2023/04/26 10:32:01;;;;;;;3.70;1.27;;;17.50;45.00;;;;;;4982323;28;20168;-67
2023/04/26 10:34:29;;;;;;;4.38;1.67;;;17.00;45.30;;;;;;4988885;28;20474;-68
2023/04/26 10:37:15;;;;;;;3.30;1.27;;;16.50;47.30;;;;;;4987724;28;20053;-67
2023/04/26 10:39:46;;;;;;;3.38;1.08;;;15.90;45.40;;;;;;4984492;28;20184;-69
2023/04/26 10:42:29;;;;;;;2.80;1.00;;;15.40;47.70;;;;;;4982463;28;20049;-67
2023/04/26 10:44:59;;;;;;;3.22;1.30;;;14.90;50.10;;;;;;4981785;28;20038;-68
2023/04/26 10:47:37;;;;;;;6.82;1.35;;;14.30;50.40;;;;;;4982971;28;20046;-68
2023/04/26 10:50:07;;;;;;;6.03;1.40;;;14.00;50.40;;;;;;4989299;28;20117;-70
2023/04/26 10:52:35;;;;;;;3.53;1.00;;;13.80;52.50;;;;;;4986691;28;20190;-69
2023/04/26 10:55:01;;;;;;;1.80;0.93;;;13.80;52.20;;;;;;4983361;28;20144;-69
2023/04/26 10:57:50;;;;;;;6.13;1.55;;;13.90;53.50;;;;;;4986187;28;20045;-68
2023/04/26 11:00:19;;;;;;;3.42;1.38;;;13.70;52.40;;;;;;4962206;28;20066;-65
2023/04/26 11:02:56;;;;;;;5.70;1.50;;;13.60;55.70;;;;;;4980653;28;20073;-67
2023/04/26 11:05:43;;;;;;;3.42;1.40;;;13.50;55.20;;;;;;4991448;28;20377;-66
2023/04/26 11:08:28;;;;;;;5.97;2.10;;;13.40;56.70;;;;;;4985613;28;20695;-66
2023/04/26 11:10:57;;;;;;;4.00;1.65;;;13.30;57.00;;;;;;4988320;28;20038;-66
2023/04/26 11:13:23;;;;;;;4.47;1.30;;;13.20;57.00;;;;;;4989018;28;20037;-66
2023/04/26 11:15:58;;;;;;;4.72;1.45;;;13.20;58.70;;;;;;4971031;28;20026;-67
2023/04/26 11:18:24;;;;;;;4.55;1.48;;;13.30;58.60;;;;;;4989804;28;20042;-66
2023/04/26 11:20:50;;;;;;;7.88;1.70;;;13.20;56.30;;;;;;4981861;28;20030;-67
2023/04/26 11:23:18;;;;;;;6.28;1.67;;;13.30;56.60;;;;;;4990827;28;20030;-67
2023/04/26 11:25:44;;;;;;;4.13;1.60;;;13.40;56.70;;;;;;4988964;28;20121;-66
2023/04/26 11:28:11;;;;;;;6.03;1.73;;;13.50;56.20;;;;;;4988141;28;20501;-67
2023/04/26 11:30:36;;;;;;;3.95;1.40;;;13.40;56.30;;;;;;4985692;28;20121;-66
2023/04/26 11:33:05;;;;;;;5.20;2.28;;;13.40;57.40;;;;;;4990021;28;20042;-67
2023/04/26 11:35:34;;;;;;;7.07;2.25;;;13.40;57.30;;;;;;4984583;28;20520;-66
2023/04/26 11:38:03;;;;;;;12.98;2.08;;;13.50;57.70;;;;;;4980585;28;20443;-67
2023/04/26 11:40:32;;;;;;;10.60;2.33;;;13.50;57.80;;;;;;4982624;28;20069;-67
2023/04/26 11:43:00;;;;;;;8.45;2.03;;;13.50;56.50;;;;;;4987481;28;20215;-67
2023/04/26 11:45:26;;;;;;;6.15;1.58;;;13.40;56.30;;;;;;4986382;28;20042;-67
2023/04/26 11:47:52;;;;;;;3.53;1.58;;;13.30;55.50;;;;;;4987831;28;20468;-67
2023/04/26 11:50:19;;;;;;;5.85;1.67;;;13.20;56.10;;;;;;4983233;28;20054;-67
2023/04/26 11:52:45;;;;;;;6.20;2.10;;;13.10;58.00;;;;;;4980777;28;20033;-66
2023/04/26 11:55:11;;;;;;;4.82;1.75;;;13.20;58.50;;;;;;4986819;28;20402;-67
2023/04/26 11:57:37;;;;;;;3.95;1.80;;;13.30;58.70;;;;;;4988346;28;20044;-67
2023/04/26 12:00:10;;;;;;;5.82;1.55;;;13.50;57.50;;;;;;4988213;28;20042;-67
2023/04/26 12:02:35;;;;;;;6.28;1.52;;;13.50;57.20;;;;;;4986928;28;20033;-67
2023/04/26 12:05:02;;;;;;;5.05;1.45;;;13.50;57.90;;;;;;4981480;28;20057;-67
2023/04/26 12:07:38;;;;;;;6.00;1.80;;;13.40;58.70;;;;;;4988894;28;20140;-66
2023/04/26 12:10:18;;;;;;;8.23;2.75;;;13.30;60.40;;;;;;4982583;28;20048;-67
2023/04/26 12:12:47;;;;;;;10.35;2.30;;;13.20;59.70;;;;;;4988738;28;20057;-67
2023/04/26 12:15:14;;;;;;;10.63;1.85;;;13.20;60.00;;;;;;4989330;28;20073;-67
2023/04/26 12:17:40;;;;;;;6.90;1.77;;;13.30;59.00;;;;;;4990320;28;20509;-66
2023/04/26 12:20:12;;;;;;;5.32;1.73;;;13.30;59.80;;;;;;4988398;28;20497;-67
2023/04/26 12:22:38;;;;;;;6.53;2.00;;;13.40;58.00;;;;;;4986793;28;20045;-66
2023/04/26 12:25:07;;;;;;;5.57;2.15;;;13.30;57.00;;;;;;4965858;28;20042;-66
2023/04/26 12:27:33;;;;;;;8.57;3.33;;;13.00;57.70;;;;;;4985069;28;20068;-66
2023/04/26 12:29:58;;;;;;;7.90;3.67;;;13.00;58.50;;;;;;4982220;28;20045;-68
2023/04/26 12:32:25;;;;;;;7.72;3.03;;;13.00;59.90;;;;;;4982649;28;20109;-66
2023/04/26 12:34:50;;;;;;;15.02;11.93;;;13.00;60.10;;;;;;4980920;28;20044;-67
2023/04/26 12:37:16;;;;;;;17.48;9.43;;;12.90;59.00;;;;;;4982519;28;20048;-67
2023/04/26 12:39:43;;;;;;;11.65;8.27;;;12.90;60.30;;;;;;4982470;28;20125;-67
2023/04/26 12:42:09;;;;;;;10.60;5.70;;;13.00;62.10;;;;;;4982372;28;20048;-66
2023/04/26 12:44:35;;;;;;;11.10;5.50;;;13.00;59.90;;;;;;4981494;28;20034;-66
2023/04/26 12:47:01;;;;;;;15.93;8.10;;;13.10;59.80;;;;;;4988085;28;20064;-67
2023/04/26 12:49:28;;;;;;;12.95;4.97;;;13.30;61.50;;;;;;4983234;28;20935;-66
2023/04/26 12:51:54;;;;;;;7.63;3.55;;;13.40;59.40;;;;;;4985179;28;20046;-66
2023/04/26 12:54:20;;;;;;;6.68;3.20;;;13.50;60.10;;;;;;4983877;28;20156;-67